Time,TemperatureF,DewpointF,PressureIn,WindDirection,WindDirectionDegrees,WindSpeedMPH,WindSpeedGustMPH,Humidity,HourlyPrecipIn,Conditions,Clouds,dailyrainin,SoftwareType,DateUTC
2013-06-20 00:09:00,55.7,51.0,30.00,SE,143,0.0,1.0,84,0.00,,,0.00,weatherlink.com 1.10,2013-06-20 07:09:00,
2013-06-20 00:24:00,55.7,51.0,30.00,ESE,114,0.0,1.0,84,0.00,,,0.00,weatherlink.com 1.10,2013-06-20 07:24:00,
2013-06-20 00:39:00,55.5,51.0,29.99,West,280,0.0,3.0,84,0.00,,,0.00,weatherlink.com 1.10,2013-06-20 07:39:00,
2013-06-20 00:54:00,55.3,51.0,30.00,West,273,0.0,2.0,85,0.00,,,0.00,weatherlink.com 1.10,2013-06-20 07:54:00,
2013-06-20 01:09:00,55.1,51.0,30.00,WSW,256,0.0,1.0,85,0.00,,,0.00,weatherlink.com 1.10,2013-06-20 08:09:00,
2013-06-20 01:24:00,55.1,51.0,29.99,SW,219,0.0,3.0,85,0.00,,,0.00,weatherlink.com 1.10,2013-06-20 08:24:00,
2013-06-20 01:39:00,55.1,51.0,29.99,West,260,0.0,2.0,86,0.00,,,0.00,weatherlink.com 1.10,2013-06-20 08:39:00,
2013-06-20 01:54:00,55.0,51.0,29.99,West,262,0.0,2.0,86,0.00,,,0.00,weatherlink.com 1.10,2013-06-20 08:54:00,
2013-06-20 02:09:00,54.9,51.0,29.98,SE,142,0.0,3.0,86,0.00,,,0.00,weatherlink.com 1.10,2013-06-20 09:09:00,
2013-06-20 02:24:00,54.6,51.0,29.98,West,264,0.0,2.0,87,0.01,,,0.01,weatherlink.com 1.10,2013-06-20 09:24:00,
2013-06-20 02:39:00,54.0,51.0,29.97,WSW,255,0.0,2.0,89,0.01,,,0.01,weatherlink.com 1.10,2013-06-20 09:39:00,
2013-06-20 02:54:00,53.6,51.0,29.97,SSE,165,0.0,1.0,90,0.01,,,0.01,weatherlink.com 1.10,2013-06-20 09:54:00,
2013-06-20 03:09:00,53.6,51.0,29.97,SSE,163,0.0,1.0,90,0.01,,,0.01,weatherlink.com 1.10,2013-06-20 10:09:00,
2013-06-20 03:24:00,53.6,51.0,29.97,ESE,121,0.0,1.0,90,0.00,,,0.01,weatherlink.com 1.10,2013-06-20 10:24:00,
2013-06-20 03:39:00,53.6,51.0,29.97,WNW,290,0.0,4.0,90,0.00,,,0.01,weatherlink.com 1.10,2013-06-20 10:39:00,
2013-06-20 03:54:00,53.5,51.0,29.97,SSW,210,0.0,1.0,90,0.00,,,0.01,weatherlink.com 1.10,2013-06-20 10:54:00,
2013-06-20 04:09:00,53.3,51.0,29.97,West,270,0.0,2.0,90,0.00,,,0.01,weatherlink.com 1.10,2013-06-20 11:09:00,
2013-06-20 04:24:00,53.3,51.0,29.97,SE,125,0.0,1.0,91,0.00,,,0.01,weatherlink.com 1.10,2013-06-20 11:24:00,
2013-06-20 04:40:00,53.3,51.0,29.96,SE,143,0.0,2.0,91,0.00,,,0.01,weatherlink.com 1.10,2013-06-20 11:40:00,
2013-06-20 04:55:00,53.3,51.0,29.97,SE,145,0.0,1.0,91,0.00,,,0.01,weatherlink.com 1.10,2013-06-20 11:55:00,
2013-06-20 05:10:00,53.2,51.0,29.97,SW,215,0.0,0.0,91,0.00,,,0.01,weatherlink.com 1.10,2013-06-20 12:10:00,
2013-06-20 05:25:00,53.3,51.0,29.97,SW,232,0.0,1.0,91,0.00,,,0.01,weatherlink.com 1.10,2013-06-20 12:25:00,
2013-06-20 05:40:00,53.3,51.0,29.97,West,273,0.0,1.0,91,0.00,,,0.01,weatherlink.com 1.10,2013-06-20 12:40:00,
2013-06-20 05:55:00,53.4,51.0,29.97,SSW,195,0.0,1.0,91,0.00,,,0.01,weatherlink.com 1.10,2013-06-20 12:55:00,
2013-06-20 06:10:00,53.5,51.0,29.96,South,191,0.0,1.0,91,0.00,,,0.01,weatherlink.com 1.10,2013-06-20 13:10:00,
2013-06-20 06:25:00,53.6,51.0,29.96,SSE,163,0.0,3.0,91,0.00,,,0.01,weatherlink.com 1.10,2013-06-20 13:25:00,
2013-06-20 06:40:00,53.6,51.0,29.96,SW,219,0.0,2.0,91,0.00,,,0.01,weatherlink.com 1.10,2013-06-20 13:40:00,
2013-06-20 06:55:00,53.7,51.0,29.96,West,263,0.0,1.0,91,0.00,,,0.01,weatherlink.com 1.10,2013-06-20 13:55:00,
2013-06-20 07:25:00,54.5,52.0,29.96,SSW,198,0.0,1.0,90,0.00,,,0.01,weatherlink.com 1.10,2013-06-20 14:25:00,
2013-06-20 07:40:00,54.8,52.0,29.96,SSW,208,0.0,3.0,89,0.00,,,0.01,weatherlink.com 1.10,2013-06-20 14:40:00,
2013-06-20 07:55:00,55.1,52.0,29.96,South,187,0.0,3.0,88,0.00,,,0.01,weatherlink.com 1.10,2013-06-20 14:55:00,
2013-06-20 08:10:00,55.5,52.0,29.95,SE,139,0.0,4.0,88,0.00,,,0.01,weatherlink.com 1.10,2013-06-20 15:10:00,
2013-06-20 08:25:00,56.1,52.0,29.95,SSW,203,0.0,4.0,87,0.00,,,0.01,weatherlink.com 1.10,2013-06-20 15:25:00,
2013-06-20 08:40:00,56.7,53.0,29.95,SW,219,0.0,5.0,86,0.00,,,0.01,weatherlink.com 1.10,2013-06-20 15:40:00,
2013-06-20 08:55:00,57.4,53.0,29.95,SSE,162,0.0,4.0,84,0.00,,,0.01,weatherlink.com 1.10,2013-06-20 15:55:00,
2013-06-20 09:10:00,58.4,53.0,29.95,SW,215,0.0,3.0,82,0.00,,,0.01,weatherlink.com 1.10,2013-06-20 16:10:00,
2013-06-20 09:25:00,59.3,53.0,29.95,WSW,250,0.0,3.0,80,0.00,,,0.01,weatherlink.com 1.10,2013-06-20 16:25:00,
2013-06-20 09:40:00,60.0,54.0,29.95,SE,131,0.0,4.0,80,0.00,,,0.01,weatherlink.com 1.10,2013-06-20 16:40:00,
2013-06-20 09:55:00,61.1,54.0,29.94,SE,146,0.0,3.0,77,0.00,,,0.01,weatherlink.com 1.10,2013-06-20 16:55:00,
2013-06-20 10:10:00,62.2,54.0,29.94,ENE,67,0.0,5.0,75,0.00,,,0.01,weatherlink.com 1.10,2013-06-20 17:10:00,
2013-06-20 10:25:00,63.0,54.0,29.93,SSW,210,1.0,4.0,73,0.00,,,0.01,weatherlink.com 1.10,2013-06-20 17:25:00,
2013-06-20 10:40:00,63.5,54.0,29.93,SSE,160,0.0,7.0,70,0.00,,,0.01,weatherlink.com 1.10,2013-06-20 17:40:00,
2013-06-20 10:55:00,64.5,54.0,29.93,SE,136,3.0,5.0,68,0.00,,,0.01,weatherlink.com 1.10,2013-06-20 17:55:00,
2013-06-20 11:10:00,64.5,54.0,29.93,ESE,105,3.0,7.0,68,0.00,,,0.01,weatherlink.com 1.10,2013-06-20 18:10:00,
2013-06-20 11:25:00,65.1,55.0,29.92,SE,139,1.0,6.0,69,0.00,,,0.01,weatherlink.com 1.10,2013-06-20 18:25:00,
2013-06-20 11:40:00,65.6,53.0,29.92,SSW,211,2.0,8.0,64,0.00,,,0.01,weatherlink.com 1.10,2013-06-20 18:40:00,
2013-06-20 11:55:00,65.9,53.0,29.92,SE,139,1.0,6.0,63,0.00,,,0.01,weatherlink.com 1.10,2013-06-20 18:55:00,
2013-06-20 12:10:00,65.5,54.0,29.93,SW,222,0.0,4.0,66,0.00,,,0.01,weatherlink.com 1.10,2013-06-20 19:10:00,
2013-06-20 12:25:00,65.1,54.0,29.93,SSW,211,0.0,4.0,68,0.00,,,0.01,weatherlink.com 1.10,2013-06-20 19:25:00,
2013-06-20 12:40:00,65.1,53.0,29.93,WSW,240,0.0,5.0,66,0.00,,,0.01,weatherlink.com 1.10,2013-06-20 19:40:00,
2013-06-20 12:55:00,64.9,56.0,29.93,South,191,0.0,4.0,72,0.00,,,0.01,weatherlink.com 1.10,2013-06-20 19:55:00,
2013-06-20 13:10:00,64.8,56.0,29.93,SSE,151,0.0,1.0,74,0.00,,,0.01,weatherlink.com 1.10,2013-06-20 20:10:00,
2013-06-20 13:25:00,65.0,57.0,29.94,ENE,67,0.0,1.0,74,0.00,,,0.01,weatherlink.com 1.10,2013-06-20 20:25:00,
2013-06-20 13:40:00,64.0,56.0,29.94,NW,326,0.0,4.0,76,0.00,,,0.01,weatherlink.com 1.10,2013-06-20 20:40:00,
2013-06-20 13:55:00,63.5,57.0,29.95,NE,43,1.0,5.0,79,0.00,,,0.01,weatherlink.com 1.10,2013-06-20 20:55:00,
2013-06-20 14:10:00,62.0,56.0,29.95,North,360,1.0,7.0,81,0.00,,,0.01,weatherlink.com 1.10,2013-06-20 21:10:00,
2013-06-20 14:25:00,60.5,56.0,29.96,North,4,2.0,6.0,84,0.00,,,0.01,weatherlink.com 1.10,2013-06-20 21:25:00,
2013-06-20 14:40:00,60.1,56.0,29.96,NE,40,2.0,4.0,87,0.00,,,0.01,weatherlink.com 1.10,2013-06-20 21:40:00,
2013-06-20 14:56:00,59.3,56.0,29.97,NE,50,2.0,5.0,88,0.00,,,0.01,weatherlink.com 1.10,2013-06-20 21:56:00,
2013-06-20 15:11:00,58.4,56.0,29.98,North,5,0.0,3.0,91,0.04,,,0.05,weatherlink.com 1.10,2013-06-20 22:11:00,
2013-06-20 15:26:00,58.0,56.0,29.98,SE,139,0.0,4.0,92,0.06,,,0.07,weatherlink.com 1.10,2013-06-20 22:26:00,
2013-06-20 15:41:00,57.8,56.0,29.99,East,99,2.0,4.0,93,0.09,,,0.10,weatherlink.com 1.10,2013-06-20 22:41:00,
2013-06-20 15:56:00,57.1,55.0,29.99,ENE,73,0.0,1.0,93,0.11,,,0.12,weatherlink.com 1.10,2013-06-20 22:56:00,
2013-06-20 16:11:00,57.0,55.0,30.00,NE,37,3.0,3.0,93,0.08,,,0.13,weatherlink.com 1.10,2013-06-20 23:11:00,
2013-06-20 16:26:00,57.0,55.0,30.00,ENE,65,4.0,5.0,94,0.06,,,0.13,weatherlink.com 1.10,2013-06-20 23:26:00,
2013-06-20 16:41:00,56.9,55.0,30.01,NE,44,1.0,4.0,94,0.03,,,0.13,weatherlink.com 1.10,2013-06-20 23:41:00,
2013-06-20 16:56:00,56.7,55.0,30.01,ENE,60,0.0,3.0,94,0.02,,,0.14,weatherlink.com 1.10,2013-06-20 23:56:00,
2013-06-20 17:11:00,56.9,55.0,30.01,East,79,1.0,3.0,94,0.02,,,0.15,weatherlink.com 1.10,2013-06-21 00:11:00,
2013-06-20 17:26:00,57.1,55.0,30.02,East,99,0.0,4.0,94,0.02,,,0.15,weatherlink.com 1.10,2013-06-21 00:26:00,
2013-06-20 17:41:00,57.0,55.0,30.02,NNE,32,0.0,3.0,93,0.02,,,0.15,weatherlink.com 1.10,2013-06-21 00:41:00,
2013-06-20 17:56:00,56.7,55.0,30.02,ESE,112,1.0,2.0,93,0.02,,,0.16,weatherlink.com 1.10,2013-06-21 00:56:00,
2013-06-20 18:11:00,57.0,55.0,30.02,SE,143,0.0,2.0,93,0.02,,,0.17,weatherlink.com 1.10,2013-06-21 01:11:00,
2013-06-20 18:26:00,57.2,55.0,30.02,ESE,108,0.0,2.0,92,0.02,,,0.17,weatherlink.com 1.10,2013-06-21 01:26:00,
2013-06-20 18:41:00,57.2,55.0,30.02,SE,145,2.0,3.0,91,0.02,,,0.17,weatherlink.com 1.10,2013-06-21 01:41:00,
2013-06-20 18:56:00,57.1,55.0,30.03,SE,145,1.0,2.0,91,0.01,,,0.17,weatherlink.com 1.10,2013-06-21 01:56:00,
2013-06-20 19:11:00,56.9,55.0,30.03,ENE,65,0.0,2.0,92,0.00,,,0.17,weatherlink.com 1.10,2013-06-21 02:11:00,
2013-06-20 19:26:00,56.7,55.0,30.04,SE,139,0.0,2.0,92,0.00,,,0.17,weatherlink.com 1.10,2013-06-21 02:26:00,
2013-06-20 19:41:00,56.4,55.0,30.04,NE,56,1.0,4.0,93,0.00,,,0.17,weatherlink.com 1.10,2013-06-21 02:41:00,
2013-06-20 19:56:00,56.0,54.0,30.05,SSE,150,1.0,7.0,94,0.00,,,0.17,weatherlink.com 1.10,2013-06-21 02:56:00,
2013-06-20 20:11:00,55.8,54.0,30.05,ESE,108,0.0,4.0,94,0.00,,,0.17,weatherlink.com 1.10,2013-06-21 03:11:00,
2013-06-20 20:26:00,55.4,54.0,30.06,ESE,117,3.0,5.0,95,0.01,,,0.18,weatherlink.com 1.10,2013-06-21 03:26:00,
2013-06-20 20:41:00,55.3,54.0,30.06,ENE,63,1.0,4.0,95,0.01,,,0.18,weatherlink.com 1.10,2013-06-21 03:41:00,
2013-06-20 20:56:00,55.2,54.0,30.07,East,94,1.0,2.0,95,0.02,,,0.19,weatherlink.com 1.10,2013-06-21 03:56:00,
2013-06-20 21:11:00,55.1,54.0,30.07,SSE,160,0.0,3.0,94,0.02,,,0.19,weatherlink.com 1.10,2013-06-21 04:11:00,
2013-06-20 21:26:00,55.1,54.0,30.07,SE,143,0.0,1.0,94,0.01,,,0.19,weatherlink.com 1.10,2013-06-21 04:26:00,
2013-06-20 21:41:00,55.0,53.0,30.08,SSW,211,0.0,3.0,94,0.01,,,0.19,weatherlink.com 1.10,2013-06-21 04:41:00,
2013-06-20 21:56:00,55.0,53.0,30.09,SE,142,0.0,2.0,94,0.00,,,0.19,weatherlink.com 1.10,2013-06-21 04:56:00,
2013-06-20 22:11:00,54.9,53.0,30.09,SE,124,0.0,4.0,94,0.00,,,0.19,weatherlink.com 1.10,2013-06-21 05:11:00,
2013-06-20 22:26:00,54.7,53.0,30.09,ESE,105,0.0,2.0,95,0.00,,,0.19,weatherlink.com 1.10,2013-06-21 05:26:00,
2013-06-20 22:41:00,54.3,53.0,30.09,ESE,108,2.0,2.0,95,0.00,,,0.19,weatherlink.com 1.10,2013-06-21 05:41:00,
2013-06-20 22:56:00,54.0,53.0,30.09,North,9,1.0,4.0,95,0.00,,,0.19,weatherlink.com 1.10,2013-06-21 05:56:00,
2013-06-20 23:11:00,53.8,52.0,30.09,SE,146,0.0,2.0,95,0.00,,,0.19,weatherlink.com 1.10,2013-06-21 06:11:00,
2013-06-20 23:26:00,53.7,53.0,30.09,East,91,0.0,3.0,96,0.01,,,0.20,weatherlink.com 1.10,2013-06-21 06:26:00,
2013-06-20 23:41:00,53.5,52.0,30.09,SE,146,1.0,1.0,96,0.01,,,0.20,weatherlink.com 1.10,2013-06-21 06:41:00,
2013-06-20 23:56:00,53.5,52.0,30.09,SSE,148,0.0,1.0,96,0.01,,,0.20,weatherlink.com 1.10,2013-06-21 06:56:00,